ACA523 EHAM-CYYZ
Flight info
| Callsign | ACA523 |
|---|---|
| Flight time | N/A |
| Altitude | 34000 |
| Route | IDRID L980 MANGO DCT ENHAQ DCT GAJIT DCT BAPHU DCT LESLU/M083F360 DCT RODEL DCT 51N020W 51N030W 5030N04000W 48N050W DCT NICSO/N0466F380 N268A MIILS DCT LETAK IMEBA9 |
| Aircraft | B77W/H-SDE1E2E3FGHIJ2J3J4J5M1RWXY/LB1D1 |
Departure
| Time | 2026-05-06 05:25 |
|---|---|
| Airport | Amsterdam Airport Schiphol (EHAM) |
Arrival
| Time | N/A |
|---|---|
| Airport | Toronto Pearson International Airport (CYYZ) |
| Time | Latitude | Longitude | Altitude | Speed | Heading |
|---|---|---|---|---|---|
| 2026-05-06 04:56 | 52.32235 | 4.74664 | 0 ft | 0 kts | 139° |
| 2026-05-06 05:15 | 52.32230 | 4.74669 | 0 ft | 4 kts | 153° |
| 2026-05-06 05:15 | 52.32180 | 4.74606 | 0 ft | 12 kts | 240° |
| 2026-05-06 05:15 | 52.32139 | 4.74487 | 0 ft | 11 kts | 240° |
| 2026-05-06 05:15 | 52.32091 | 4.74381 | 0 ft | 12 kts | 222° |
| 2026-05-06 05:16 | 52.32037 | 4.74276 | 0 ft | 11 kts | 261° |
| 2026-05-06 05:16 | 52.32032 | 4.74148 | 0 ft | 11 kts | 272° |
| 2026-05-06 05:16 | 52.32036 | 4.74010 | 0 ft | 13 kts | 273° |
| 2026-05-06 05:16 | 52.32041 | 4.73855 | 1 ft | 13 kts | 274° |
| 2026-05-06 05:17 | 52.32046 | 4.73722 | 2 ft | 10 kts | 274° |
| 2026-05-06 05:17 | 52.32051 | 4.73606 | 2 ft | 10 kts | 274° |
| 2026-05-06 05:17 | 52.32056 | 4.73492 | 2 ft | 9 kts | 274° |
| 2026-05-06 05:17 | 52.32075 | 4.73385 | 2 ft | 10 kts | 304° |
| 2026-05-06 05:18 | 52.32136 | 4.73291 | 1 ft | 13 kts | 319° |
| 2026-05-06 05:18 | 52.32207 | 4.73192 | 0 ft | 13 kts | 320° |
| 2026-05-06 05:18 | 52.32274 | 4.73095 | 0 ft | 12 kts | 319° |
| 2026-05-06 05:18 | 52.32337 | 4.73005 | 0 ft | 13 kts | 319° |
| 2026-05-06 05:19 | 52.32407 | 4.72906 | 0 ft | 12 kts | 319° |
| 2026-05-06 05:19 | 52.32469 | 4.72819 | 0 ft | 11 kts | 320° |
| 2026-05-06 05:19 | 52.32524 | 4.72743 | 0 ft | 10 kts | 320° |
| 2026-05-06 05:19 | 52.32591 | 4.72651 | 1 ft | 13 kts | 320° |
| 2026-05-06 05:20 | 52.32655 | 4.72565 | 2 ft | 10 kts | 321° |
| 2026-05-06 05:20 | 52.32702 | 4.72482 | 2 ft | 9 kts | 311° |
| 2026-05-06 05:20 | 52.32747 | 4.72399 | 2 ft | 9 kts | 312° |
| 2026-05-06 05:20 | 52.32800 | 4.72302 | 2 ft | 11 kts | 312° |
| 2026-05-06 05:21 | 52.32852 | 4.72208 | 2 ft | 10 kts | 312° |
| 2026-05-06 05:21 | 52.32901 | 4.72119 | 2 ft | 12 kts | 311° |
| 2026-05-06 05:21 | 52.32963 | 4.71991 | 0 ft | 15 kts | 305° |
| 2026-05-06 05:21 | 52.33026 | 4.71853 | 0 ft | 14 kts | 315° |
| 2026-05-06 05:22 | 52.33095 | 4.71741 | 0 ft | 13 kts | 315° |
| 2026-05-06 05:22 | 52.33143 | 4.71619 | 0 ft | 13 kts | 288° |
| 2026-05-06 05:22 | 52.33114 | 4.71482 | 0 ft | 15 kts | 223° |
| 2026-05-06 05:22 | 52.33041 | 4.71368 | 0 ft | 12 kts | 224° |
| 2026-05-06 05:23 | 52.32980 | 4.71272 | 0 ft | 11 kts | 224° |
| 2026-05-06 05:23 | 52.32923 | 4.71181 | 0 ft | 10 kts | 224° |
| 2026-05-06 05:23 | 52.32869 | 4.71075 | 0 ft | 0 kts | 256° |
| 2026-05-06 05:24 | 52.32865 | 4.71040 | 0 ft | 8 kts | 264° |
| 2026-05-06 05:24 | 52.32874 | 4.70940 | 0 ft | 9 kts | 297° |
| 2026-05-06 05:24 | 52.32933 | 4.70898 | 0 ft | 10 kts | 356° |
| 2026-05-06 05:24 | 52.33044 | 4.70904 | 0 ft | 28 kts | 3° |
| 2026-05-06 05:25 | 52.33448 | 4.70934 | 0 ft | 96 kts | 4° |
| 2026-05-06 05:25 | 52.34367 | 4.71015 | 19 ft | 164 kts | 2° |
| 2026-05-06 05:25 | 52.35611 | 4.71150 | 544 ft | 186 kts | 4° |
| 2026-05-06 05:25 | 52.36922 | 4.71262 | 1454 ft | 198 kts | 5° |
| 2026-05-06 05:26 | 52.38267 | 4.71383 | 2437 ft | 199 kts | 6° |
| 2026-05-06 05:26 | 52.39674 | 4.71516 | 3106 ft | 211 kts | 6° |
| 2026-05-06 05:26 | 52.41172 | 4.71657 | 3737 ft | 225 kts | 6° |
| 2026-05-06 05:26 | 52.42782 | 4.71393 | 4413 ft | 241 kts | 345° |
| 2026-05-06 05:27 | 52.44260 | 4.70050 | 5153 ft | 252 kts | 322° |
| 2026-05-06 05:27 | 52.45506 | 4.68022 | 5946 ft | 257 kts | 314° |
| 2026-05-06 05:27 | 52.46406 | 4.65473 | 6717 ft | 265 kts | 289° |
| 2026-05-06 05:27 | 52.46661 | 4.62498 | 7470 ft | 271 kts | 274° |
| 2026-05-06 05:28 | 52.46690 | 4.59453 | 8270 ft | 274 kts | 272° |
| 2026-05-06 05:28 | 52.46621 | 4.56452 | 9062 ft | 277 kts | 261° |
| 2026-05-06 05:28 | 52.45923 | 4.53543 | 9798 ft | 282 kts | 237° |
| 2026-05-06 05:28 | 52.44561 | 4.51227 | 10528 ft | 287 kts | 221° |
| 2026-05-06 05:29 | 52.43126 | 4.48981 | 11137 ft | 295 kts | 230° |
| 2026-05-06 05:29 | 52.41828 | 4.46279 | 11597 ft | 311 kts | 236° |
| 2026-05-06 05:29 | 52.40592 | 4.43228 | 12086 ft | 327 kts | 240° |
| 2026-05-06 05:29 | 52.39435 | 4.40005 | 12572 ft | 342 kts | 242° |
| 2026-05-06 05:30 | 52.38268 | 4.36520 | 13116 ft | 356 kts | 243° |
| 2026-05-06 05:30 | 52.37071 | 4.32870 | 13662 ft | 370 kts | 242° |
| 2026-05-06 05:30 | 52.35846 | 4.29122 | 14225 ft | 383 kts | 242° |
| 2026-05-06 05:30 | 52.34575 | 4.25238 | 14959 ft | 392 kts | 242° |
| 2026-05-06 05:31 | 52.33289 | 4.21317 | 15808 ft | 396 kts | 242° |
| 2026-05-06 05:31 | 52.31993 | 4.17378 | 16618 ft | 401 kts | 241° |
| 2026-05-06 05:31 | 52.30441 | 4.13560 | 17366 ft | 408 kts | 233° |
| 2026-05-06 05:31 | 52.28700 | 4.09879 | 18140 ft | 413 kts | 232° |
| 2026-05-06 05:32 | 52.26940 | 4.06199 | 18937 ft | 418 kts | 232° |
| 2026-05-06 05:32 | 52.25148 | 4.02454 | 19853 ft | 418 kts | 232° |
| 2026-05-06 05:32 | 52.23373 | 3.98750 | 20752 ft | 419 kts | 232° |
| 2026-05-06 05:32 | 52.21590 | 3.95032 | 21491 ft | 423 kts | 232° |
| 2026-05-06 05:33 | 52.19767 | 3.91236 | 22154 ft | 429 kts | 232° |
| 2026-05-06 05:33 | 52.17919 | 3.87392 | 22878 ft | 433 kts | 231° |
| 2026-05-06 05:33 | 52.16067 | 3.83545 | 23601 ft | 436 kts | 231° |
| 2026-05-06 05:33 | 52.14185 | 3.79642 | 24299 ft | 439 kts | 231° |
| 2026-05-06 05:34 | 52.12304 | 3.75746 | 24915 ft | 444 kts | 231° |
| 2026-05-06 05:34 | 52.10383 | 3.71774 | 25574 ft | 447 kts | 231° |
| 2026-05-06 05:34 | 52.08473 | 3.67831 | 26203 ft | 451 kts | 231° |
| 2026-05-06 05:34 | 52.06509 | 3.63781 | 26819 ft | 455 kts | 231° |
| 2026-05-06 05:35 | 52.04541 | 3.59730 | 27403 ft | 459 kts | 231° |
| 2026-05-06 05:35 | 52.02575 | 3.55690 | 27970 ft | 464 kts | 231° |
| 2026-05-06 05:35 | 52.00581 | 3.51598 | 28543 ft | 467 kts | 231° |
| 2026-05-06 05:35 | 51.98557 | 3.47402 | 29117 ft | 471 kts | 233° |
| 2026-05-06 05:36 | 51.96624 | 3.43121 | 29739 ft | 473 kts | 233° |
| 2026-05-06 05:36 | 51.94703 | 3.38835 | 30444 ft | 473 kts | 233° |
| 2026-05-06 05:36 | 51.92783 | 3.34564 | 31193 ft | 471 kts | 232° |
| 2026-05-06 05:36 | 51.90891 | 3.30372 | 31888 ft | 468 kts | 233° |
| 2026-05-06 05:37 | 51.89011 | 3.26216 | 32524 ft | 465 kts | 233° |
| 2026-05-06 05:37 | 51.87220 | 3.22014 | 33068 ft | 464 kts | 238° |
| 2026-05-06 05:37 | 51.85773 | 3.17365 | 33556 ft | 464 kts | 247° |
| 2026-05-06 05:37 | 51.84774 | 3.12478 | 33875 ft | 467 kts | 255° |
| 2026-05-06 05:38 | 51.83880 | 3.02273 | 33893 ft | 469 kts | 263° |
| 2026-05-06 05:38 | 51.83222 | 2.91718 | 33889 ft | 484 kts | 263° |
| 2026-05-06 05:39 | 51.82532 | 2.81065 | 33886 ft | 498 kts | 263° |
| 2026-05-06 05:39 | 51.81795 | 2.69997 | 33891 ft | 503 kts | 263° |
| 2026-05-06 05:40 | 51.81069 | 2.59311 | 33899 ft | 502 kts | 263° |
| 2026-05-06 05:41 | 51.79524 | 2.37204 | 33903 ft | 501 kts | 263° |
| 2026-05-06 05:41 | 51.78728 | 2.26064 | 33904 ft | 500 kts | 263° |
| 2026-05-06 05:42 | 51.77995 | 2.14907 | 33905 ft | 500 kts | 264° |
| 2026-05-06 05:42 | 51.77352 | 2.03766 | 33910 ft | 500 kts | 264° |
| 2026-05-06 05:43 | 51.76694 | 1.92656 | 33908 ft | 500 kts | 264° |
| 2026-05-06 05:43 | 51.76020 | 1.81519 | 33916 ft | 500 kts | 264° |
| 2026-05-06 05:44 | 51.75332 | 1.70370 | 33922 ft | 499 kts | 264° |
| 2026-05-06 05:44 | 51.74635 | 1.59247 | 33920 ft | 499 kts | 264° |
| 2026-05-06 05:45 | 51.73930 | 1.48197 | 33928 ft | 498 kts | 264° |
| 2026-05-06 05:45 | 51.73208 | 1.37059 | 33928 ft | 497 kts | 264° |
| 2026-05-06 05:46 | 51.72485 | 1.26065 | 33935 ft | 498 kts | 263° |
| 2026-05-06 05:46 | 51.71750 | 1.15046 | 33937 ft | 498 kts | 263° |
| 2026-05-06 05:47 | 51.71000 | 1.03968 | 33947 ft | 498 kts | 263° |
| 2026-05-06 05:47 | 51.70246 | 0.92986 | 33953 ft | 497 kts | 263° |
| 2026-05-06 05:48 | 51.69478 | 0.81947 | 33947 ft | 496 kts | 263° |
| 2026-05-06 05:48 | 51.68520 | 0.70970 | 33947 ft | 497 kts | 260° |
| 2026-05-06 05:49 | 51.67362 | 0.60148 | 33955 ft | 497 kts | 260° |
| 2026-05-06 05:49 | 51.66195 | 0.49217 | 33950 ft | 497 kts | 261° |
| 2026-05-06 05:50 | 51.65033 | 0.38353 | 33939 ft | 497 kts | 261° |
| 2026-05-06 05:50 | 51.63867 | 0.27501 | 33952 ft | 498 kts | 260° |
| 2026-05-06 05:51 | 51.62704 | 0.16752 | 33956 ft | 497 kts | 260° |
| 2026-05-06 05:51 | 51.61530 | 0.05981 | 33967 ft | 496 kts | 260° |
| 2026-05-06 05:52 | 51.60386 | -0.04429 | 33968 ft | 497 kts | 260° |
| 2026-05-06 05:52 | 51.59177 | -0.15345 | 33965 ft | 498 kts | 260° |
| 2026-05-06 05:53 | 51.57966 | -0.26186 | 33969 ft | 498 kts | 260° |
| 2026-05-06 05:53 | 51.56739 | -0.37065 | 33971 ft | 498 kts | 260° |
| 2026-05-06 05:54 | 51.55502 | -0.47941 | 33973 ft | 498 kts | 260° |
| 2026-05-06 05:54 | 51.54246 | -0.58896 | 33973 ft | 498 kts | 260° |
| 2026-05-06 05:55 | 51.52996 | -0.69703 | 33972 ft | 498 kts | 259° |
| 2026-05-06 05:55 | 51.51733 | -0.80530 | 33964 ft | 497 kts | 259° |
| 2026-05-06 05:56 | 51.50456 | -0.91379 | 33956 ft | 497 kts | 259° |
| 2026-05-06 05:56 | 51.49163 | -1.02285 | 33960 ft | 497 kts | 259° |
| 2026-05-06 05:57 | 51.47870 | -1.13093 | 33964 ft | 497 kts | 259° |
| 2026-05-06 05:57 | 51.46557 | -1.23976 | 33961 ft | 498 kts | 259° |
| 2026-05-06 05:58 | 51.45243 | -1.34780 | 33959 ft | 498 kts | 260° |
| 2026-05-06 05:58 | 51.43925 | -1.45533 | 33959 ft | 498 kts | 260° |
| 2026-05-06 05:59 | 51.42580 | -1.56414 | 33961 ft | 499 kts | 260° |
| 2026-05-06 05:59 | 51.41229 | -1.67260 | 33961 ft | 498 kts | 259° |
| 2026-05-06 06:00 | 51.39314 | -1.77891 | 33965 ft | 499 kts | 251° |
| 2026-05-06 06:00 | 51.37015 | -1.88366 | 33967 ft | 500 kts | 251° |
| 2026-05-06 06:01 | 51.34757 | -1.98832 | 33963 ft | 500 kts | 256° |
| 2026-05-06 06:01 | 51.33569 | -2.09699 | 33968 ft | 499 kts | 263° |
| 2026-05-06 06:02 | 51.32612 | -2.20613 | 33973 ft | 499 kts | 263° |
| 2026-05-06 06:02 | 51.31635 | -2.31567 | 33986 ft | 498 kts | 263° |
| 2026-05-06 06:03 | 51.30648 | -2.42504 | 33988 ft | 497 kts | 263° |
| 2026-05-06 06:03 | 51.29655 | -2.53362 | 33986 ft | 497 kts | 263° |
| 2026-05-06 06:04 | 51.28644 | -2.64295 | 33991 ft | 497 kts | 263° |
| 2026-05-06 06:04 | 51.27627 | -2.75171 | 33994 ft | 497 kts | 262° |
| 2026-05-06 06:05 | 51.26599 | -2.86047 | 33997 ft | 497 kts | 262° |
| 2026-05-06 06:05 | 51.25562 | -2.96914 | 33997 ft | 496 kts | 262° |
| 2026-05-06 06:06 | 51.24522 | -3.07705 | 34002 ft | 496 kts | 262° |
| 2026-05-06 06:06 | 51.23461 | -3.18588 | 34004 ft | 496 kts | 262° |
| 2026-05-06 06:07 | 51.22406 | -3.29320 | 33996 ft | 496 kts | 262° |
| 2026-05-06 06:07 | 51.21327 | -3.40177 | 33989 ft | 497 kts | 262° |
| 2026-05-06 06:08 | 51.20249 | -3.50921 | 33979 ft | 497 kts | 262° |
| 2026-05-06 06:08 | 51.19149 | -3.61779 | 33979 ft | 497 kts | 262° |
| 2026-05-06 06:09 | 51.18045 | -3.72595 | 33980 ft | 497 kts | 262° |
| 2026-05-06 06:09 | 51.17590 | -3.83491 | 33978 ft | 496 kts | 269° |
| 2026-05-06 06:10 | 51.17336 | -3.94409 | 33976 ft | 496 kts | 269° |
| 2026-05-06 06:10 | 51.17064 | -4.05313 | 33979 ft | 497 kts | 268° |
| 2026-05-06 06:11 | 51.16775 | -4.16324 | 33972 ft | 496 kts | 268° |
| 2026-05-06 06:11 | 51.16476 | -4.27212 | 33974 ft | 495 kts | 268° |
| 2026-05-06 06:12 | 51.16166 | -4.38089 | 33974 ft | 494 kts | 268° |
| 2026-05-06 06:12 | 51.15845 | -4.48969 | 33975 ft | 494 kts | 268° |
| 2026-05-06 06:13 | 51.15514 | -4.59851 | 33971 ft | 494 kts | 268° |
| 2026-05-06 06:13 | 51.15172 | -4.70719 | 33978 ft | 494 kts | 268° |
| 2026-05-06 06:14 | 51.14820 | -4.81600 | 33979 ft | 494 kts | 268° |
| 2026-05-06 06:14 | 51.14457 | -4.92510 | 33976 ft | 494 kts | 268° |
| 2026-05-06 06:15 | 51.14085 | -5.03361 | 33974 ft | 494 kts | 268° |
| 2026-05-06 06:15 | 51.13702 | -5.14236 | 33976 ft | 493 kts | 268° |
| 2026-05-06 06:16 | 51.13313 | -5.25029 | 33978 ft | 493 kts | 268° |
| 2026-05-06 06:16 | 51.12909 | -5.35937 | 33982 ft | 493 kts | 268° |
| 2026-05-06 06:17 | 51.12498 | -5.46756 | 33983 ft | 492 kts | 268° |
| 2026-05-06 06:17 | 51.12078 | -5.57556 | 33985 ft | 491 kts | 268° |
| 2026-05-06 06:18 | 51.11646 | -5.68396 | 33988 ft | 491 kts | 266° |
| 2026-05-06 06:18 | 51.11202 | -5.79283 | 33991 ft | 491 kts | 266° |
| 2026-05-06 06:19 | 51.10753 | -5.90060 | 33995 ft | 490 kts | 266° |
| 2026-05-06 06:19 | 51.10293 | -6.00856 | 33995 ft | 492 kts | 266° |
| 2026-05-06 06:20 | 51.09822 | -6.11663 | 33996 ft | 491 kts | 266° |
| 2026-05-06 06:20 | 51.09341 | -6.22479 | 33998 ft | 491 kts | 266° |
| 2026-05-06 06:21 | 51.08849 | -6.33304 | 34000 ft | 491 kts | 266° |
| 2026-05-06 06:21 | 51.08350 | -6.44077 | 34000 ft | 490 kts | 266° |
| 2026-05-06 06:22 | 51.07841 | -6.54843 | 34002 ft | 490 kts | 266° |
| 2026-05-06 06:22 | 51.07320 | -6.65644 | 34005 ft | 490 kts | 266° |
| 2026-05-06 06:23 | 51.06789 | -6.76445 | 34007 ft | 490 kts | 266° |
| 2026-05-06 06:23 | 51.06251 | -6.87195 | 34010 ft | 489 kts | 266° |
| 2026-05-06 06:24 | 51.05702 | -6.97958 | 34012 ft | 489 kts | 266° |
| 2026-05-06 06:24 | 51.05141 | -7.08760 | 34013 ft | 489 kts | 266° |
| 2026-05-06 06:25 | 51.04572 | -7.19536 | 34013 ft | 489 kts | 266° |
| 2026-05-06 06:26 | 51.03704 | -7.35599 | 34013 ft | 488 kts | 265° |
| 2026-05-06 06:26 | 51.03110 | -7.46348 | 34011 ft | 488 kts | 266° |
| 2026-05-06 06:27 | 51.02510 | -7.57056 | 34012 ft | 487 kts | 265° |
| 2026-05-06 06:27 | 51.01900 | -7.67743 | 34014 ft | 487 kts | 265° |
| 2026-05-06 06:28 | 51.01281 | -7.78423 | 34015 ft | 486 kts | 265° |
| 2026-05-06 06:28 | 51.00653 | -7.89090 | 34014 ft | 487 kts | 265° |
| 2026-05-06 06:29 | 51.00015 | -7.99749 | 34013 ft | 487 kts | 265° |
| 2026-05-06 06:29 | 50.99529 | -8.10519 | 34014 ft | 487 kts | 266° |
| 2026-05-06 06:30 | 50.99091 | -8.21241 | 34012 ft | 486 kts | 266° |
| 2026-05-06 06:30 | 50.98640 | -8.31887 | 34012 ft | 486 kts | 266° |
| 2026-05-06 06:31 | 50.98175 | -8.42549 | 34011 ft | 486 kts | 266° |
| 2026-05-06 06:31 | 50.97696 | -8.53233 | 34011 ft | 485 kts | 266° |
| 2026-05-06 06:32 | 50.97209 | -8.63855 | 34011 ft | 485 kts | 266° |
| 2026-05-06 06:32 | 50.96711 | -8.74484 | 34015 ft | 485 kts | 265° |
| 2026-05-06 06:33 | 50.96201 | -8.85158 | 34012 ft | 485 kts | 266° |
| 2026-05-06 06:33 | 50.95681 | -8.95837 | 34016 ft | 484 kts | 265° |
| 2026-05-06 06:34 | 50.95155 | -9.06425 | 34017 ft | 485 kts | 265° |
| 2026-05-06 06:34 | 50.94616 | -9.17089 | 34013 ft | 486 kts | 265° |
| 2026-05-06 06:35 | 50.94067 | -9.27760 | 34014 ft | 487 kts | 266° |
| 2026-05-06 06:35 | 50.93507 | -9.38438 | 34016 ft | 487 kts | 266° |
| 2026-05-06 06:36 | 50.92938 | -9.49098 | 34011 ft | 486 kts | 266° |
| 2026-05-06 06:36 | 50.92361 | -9.59740 | 34025 ft | 488 kts | 266° |
| 2026-05-06 06:37 | 50.91770 | -9.70437 | 34038 ft | 488 kts | 265° |
| 2026-05-06 06:37 | 50.91169 | -9.81153 | 34032 ft | 488 kts | 265° |
| 2026-05-06 06:38 | 50.90561 | -9.91811 | 34033 ft | 489 kts | 265° |
| 2026-05-06 06:38 | 50.89937 | -10.02572 | 34035 ft | 490 kts | 265° |
| 2026-05-06 06:39 | 50.89307 | -10.13269 | 34031 ft | 490 kts | 265° |
| 2026-05-06 06:39 | 50.88662 | -10.24034 | 34038 ft | 491 kts | 265° |
| 2026-05-06 06:40 | 50.88014 | -10.34696 | 34034 ft | 490 kts | 265° |
| 2026-05-06 06:40 | 50.87352 | -10.45438 | 34040 ft | 491 kts | 265° |
| 2026-05-06 06:41 | 50.86680 | -10.56160 | 34043 ft | 490 kts | 265° |
| 2026-05-06 06:41 | 50.85999 | -10.66879 | 34046 ft | 491 kts | 264° |
| 2026-05-06 06:42 | 50.85305 | -10.77624 | 34042 ft | 491 kts | 264° |
| 2026-05-06 06:42 | 50.84604 | -10.88342 | 34058 ft | 492 kts | 264° |
| 2026-05-06 06:43 | 50.83889 | -10.99108 | 34052 ft | 492 kts | 264° |
| 2026-05-06 06:43 | 50.83168 | -11.09812 | 34056 ft | 493 kts | 264° |
| 2026-05-06 06:44 | 50.82431 | -11.20611 | 34051 ft | 493 kts | 264° |
| 2026-05-06 06:44 | 50.81685 | -11.31393 | 34056 ft | 494 kts | 264° |
| 2026-05-06 06:45 | 50.80932 | -11.42123 | 34052 ft | 494 kts | 264° |
| 2026-05-06 06:45 | 50.80166 | -11.52902 | 34055 ft | 495 kts | 264° |
| 2026-05-06 06:46 | 50.79386 | -11.63727 | 34052 ft | 494 kts | 264° |
| 2026-05-06 06:46 | 50.78599 | -11.74511 | 34057 ft | 495 kts | 264° |
| 2026-05-06 06:47 | 50.77804 | -11.85261 | 34054 ft | 495 kts | 264° |
| 2026-05-06 06:47 | 50.76998 | -11.96030 | 34054 ft | 495 kts | 264° |
| 2026-05-06 06:48 | 50.76185 | -12.06749 | 34055 ft | 495 kts | 264° |
| 2026-05-06 06:48 | 50.75354 | -12.17578 | 34056 ft | 496 kts | 264° |
| 2026-05-06 06:49 | 50.74517 | -12.28340 | 34058 ft | 497 kts | 264° |
| 2026-05-06 06:49 | 50.73664 | -12.39185 | 34055 ft | 497 kts | 264° |
| 2026-05-06 06:50 | 50.72803 | -12.49991 | 34059 ft | 498 kts | 264° |
| 2026-05-06 06:50 | 50.71930 | -12.60830 | 34060 ft | 497 kts | 264° |
| 2026-05-06 06:51 | 50.71055 | -12.71559 | 34067 ft | 497 kts | 263° |
| 2026-05-06 06:51 | 50.70164 | -12.82355 | 34064 ft | 497 kts | 263° |
| 2026-05-06 06:52 | 50.69259 | -12.93212 | 34067 ft | 498 kts | 263° |
| 2026-05-06 06:52 | 50.68346 | -13.04028 | 34080 ft | 498 kts | 263° |
| 2026-05-06 06:53 | 50.67427 | -13.14791 | 34074 ft | 499 kts | 263° |
| 2026-05-06 06:53 | 50.66494 | -13.25594 | 34067 ft | 499 kts | 263° |
| 2026-05-06 06:54 | 50.65548 | -13.36439 | 34068 ft | 500 kts | 263° |
| 2026-05-06 06:54 | 50.64592 | -13.47266 | 34066 ft | 499 kts | 263° |
| 2026-05-06 06:55 | 50.63630 | -13.58051 | 34063 ft | 500 kts | 263° |
| 2026-05-06 06:55 | 50.62656 | -13.68856 | 34064 ft | 500 kts | 262° |
| 2026-05-06 06:56 | 50.61671 | -13.79671 | 34062 ft | 501 kts | 262° |
| 2026-05-06 06:56 | 50.60666 | -13.90577 | 34072 ft | 501 kts | 262° |
| 2026-05-06 06:57 | 50.59656 | -14.01428 | 34070 ft | 501 kts | 262° |
| 2026-05-06 06:57 | 50.58641 | -14.12225 | 34070 ft | 502 kts | 263° |
| 2026-05-06 06:58 | 50.57608 | -14.23093 | 34065 ft | 502 kts | 263° |
| 2026-05-06 06:58 | 50.56572 | -14.33893 | 34073 ft | 503 kts | 263° |
| 2026-05-06 06:59 | 50.55519 | -14.44754 | 34067 ft | 503 kts | 263° |
| 2026-05-06 06:59 | 50.54453 | -14.55649 | 34072 ft | 504 kts | 263° |
| 2026-05-06 07:00 | 50.53374 | -14.66553 | 34065 ft | 506 kts | 263° |
| 2026-05-06 07:00 | 50.52285 | -14.77459 | 34077 ft | 507 kts | 263° |
| 2026-05-06 07:01 | 50.51180 | -14.88414 | 34067 ft | 509 kts | 263° |
| 2026-05-06 07:01 | 50.50216 | -14.99385 | 34076 ft | 506 kts | 270° |
| 2026-05-06 07:02 | 50.50866 | -15.10195 | 34085 ft | 504 kts | 284° |
| 2026-05-06 07:02 | 50.52330 | -15.20938 | 34084 ft | 503 kts | 284° |
| 2026-05-06 07:03 | 50.53718 | -15.31657 | 34099 ft | 504 kts | 284° |
| 2026-05-06 07:03 | 50.55057 | -15.42431 | 34082 ft | 504 kts | 284° |
| 2026-05-06 07:04 | 50.56369 | -15.53277 | 34095 ft | 504 kts | 284° |
| 2026-05-06 07:04 | 50.57653 | -15.64095 | 34072 ft | 505 kts | 284° |
| 2026-05-06 07:05 | 50.58918 | -15.74908 | 34101 ft | 505 kts | 283° |
| 2026-05-06 07:05 | 50.60177 | -15.85785 | 34086 ft | 507 kts | 283° |
| 2026-05-06 07:06 | 50.61421 | -15.96653 | 34093 ft | 508 kts | 283° |
| 2026-05-06 07:06 | 50.62661 | -16.07589 | 34090 ft | 508 kts | 283° |
| 2026-05-06 07:07 | 50.63883 | -16.18465 | 34110 ft | 507 kts | 284° |
| 2026-05-06 07:07 | 50.65093 | -16.29329 | 34101 ft | 507 kts | 284° |
| 2026-05-06 07:08 | 50.66303 | -16.40299 | 34100 ft | 507 kts | 284° |
| 2026-05-06 07:08 | 50.67494 | -16.51195 | 34117 ft | 508 kts | 284° |
| 2026-05-06 07:09 | 50.68677 | -16.62112 | 34119 ft | 507 kts | 284° |
| 2026-05-06 07:09 | 50.69850 | -16.73042 | 34108 ft | 509 kts | 284° |
| 2026-05-06 07:10 | 50.71016 | -16.83999 | 34104 ft | 508 kts | 284° |
| 2026-05-06 07:10 | 50.72170 | -16.94957 | 34119 ft | 507 kts | 284° |
| 2026-05-06 07:11 | 50.73313 | -17.05913 | 34121 ft | 507 kts | 284° |
| 2026-05-06 07:11 | 50.74446 | -17.16868 | 34108 ft | 507 kts | 284° |
| 2026-05-06 07:12 | 50.75568 | -17.27819 | 34109 ft | 506 kts | 284° |
| 2026-05-06 07:12 | 50.76682 | -17.38802 | 34111 ft | 506 kts | 284° |
| 2026-05-06 07:13 | 50.77776 | -17.49694 | 34122 ft | 507 kts | 284° |
| 2026-05-06 07:13 | 50.78869 | -17.60688 | 34117 ft | 505 kts | 284° |
| 2026-05-06 07:14 | 50.79946 | -17.71637 | 34109 ft | 505 kts | 283° |
| 2026-05-06 07:14 | 50.81021 | -17.82655 | 34113 ft | 504 kts | 283° |
| 2026-05-06 07:15 | 50.82073 | -17.93558 | 34119 ft | 504 kts | 283° |
| 2026-05-06 07:15 | 50.83120 | -18.04514 | 34124 ft | 504 kts | 283° |
| 2026-05-06 07:16 | 50.84150 | -18.15417 | 34121 ft | 504 kts | 283° |
| 2026-05-06 07:16 | 50.85178 | -18.26399 | 34129 ft | 503 kts | 283° |
| 2026-05-06 07:17 | 50.86182 | -18.37239 | 34122 ft | 502 kts | 283° |
| 2026-05-06 07:17 | 50.87186 | -18.48203 | 34127 ft | 502 kts | 283° |
| 2026-05-06 07:18 | 50.88168 | -18.59029 | 34126 ft | 500 kts | 283° |
| 2026-05-06 07:18 | 50.89142 | -18.69889 | 34129 ft | 500 kts | 282° |
| 2026-05-06 07:19 | 50.90112 | -18.80820 | 34136 ft | 501 kts | 282° |
| 2026-05-06 07:19 | 50.91062 | -18.91648 | 34139 ft | 498 kts | 282° |
| 2026-05-06 07:20 | 50.92007 | -19.02535 | 34133 ft | 499 kts | 282° |
| 2026-05-06 07:20 | 50.92940 | -19.13400 | 34129 ft | 498 kts | 282° |
| 2026-05-06 07:21 | 50.93859 | -19.24229 | 34134 ft | 499 kts | 282° |
| 2026-05-06 07:21 | 50.94768 | -19.35073 | 34133 ft | 498 kts | 282° |
| 2026-05-06 07:22 | 50.95672 | -19.45962 | 34127 ft | 499 kts | 282° |
| 2026-05-06 07:22 | 50.96564 | -19.56843 | 34130 ft | 497 kts | 282° |
| 2026-05-06 07:23 | 50.97443 | -19.67690 | 34133 ft | 498 kts | 281° |
| 2026-05-06 07:23 | 50.98313 | -19.78554 | 34133 ft | 498 kts | 281° |
| 2026-05-06 07:24 | 50.99175 | -19.89450 | 34132 ft | 498 kts | 281° |
| 2026-05-06 07:24 | 50.99982 | -20.00328 | 34134 ft | 499 kts | 278° |
| 2026-05-06 07:25 | 51.00471 | -20.11309 | 34130 ft | 499 kts | 277° |
| 2026-05-06 07:25 | 51.00928 | -20.22277 | 34129 ft | 499 kts | 277° |
| 2026-05-06 07:26 | 51.01373 | -20.33247 | 34130 ft | 499 kts | 277° |
| 2026-05-06 07:26 | 51.01805 | -20.44191 | 34129 ft | 498 kts | 277° |
| 2026-05-06 07:27 | 51.02226 | -20.55094 | 34132 ft | 497 kts | 277° |
| 2026-05-06 07:27 | 51.02638 | -20.66060 | 34132 ft | 498 kts | 276° |
| 2026-05-06 07:28 | 51.03038 | -20.76963 | 34132 ft | 498 kts | 276° |
| 2026-05-06 07:28 | 51.03621 | -20.93393 | 34133 ft | 497 kts | 276° |
| 2026-05-06 07:29 | 51.03994 | -21.04276 | 34130 ft | 497 kts | 276° |
| 2026-05-06 07:29 | 51.04360 | -21.15256 | 34132 ft | 498 kts | 275° |
| 2026-05-06 07:30 | 51.04714 | -21.26192 | 34129 ft | 496 kts | 275° |
| 2026-05-06 07:30 | 51.05058 | -21.37099 | 34132 ft | 495 kts | 275° |
| 2026-05-06 07:31 | 51.05391 | -21.48019 | 34129 ft | 495 kts | 275° |
| 2026-05-06 07:31 | 51.05712 | -21.58848 | 34131 ft | 494 kts | 275° |
| 2026-05-06 07:32 | 51.06025 | -21.69753 | 34133 ft | 494 kts | 274° |
| 2026-05-06 07:32 | 51.06326 | -21.80618 | 34133 ft | 494 kts | 274° |
| 2026-05-06 07:33 | 51.06617 | -21.91469 | 34133 ft | 493 kts | 274° |
| 2026-05-06 07:33 | 51.06895 | -22.02232 | 34137 ft | 492 kts | 274° |
| 2026-05-06 07:34 | 51.07167 | -22.13118 | 34131 ft | 492 kts | 274° |
| 2026-05-06 07:34 | 51.07426 | -22.23882 | 34133 ft | 492 kts | 274° |
| 2026-05-06 07:35 | 51.07676 | -22.34709 | 34133 ft | 491 kts | 274° |
| 2026-05-06 07:35 | 51.07914 | -22.45436 | 34137 ft | 491 kts | 274° |
| 2026-05-06 07:36 | 51.08144 | -22.56230 | 34132 ft | 491 kts | 274° |
| 2026-05-06 07:36 | 51.08364 | -22.67049 | 34137 ft | 491 kts | 272° |
| 2026-05-06 07:37 | 51.08572 | -22.77776 | 34135 ft | 491 kts | 273° |
| 2026-05-06 07:37 | 51.08773 | -22.88619 | 34138 ft | 490 kts | 272° |
| 2026-05-06 07:38 | 51.08961 | -22.99331 | 34136 ft | 489 kts | 272° |
| 2026-05-06 07:38 | 51.09141 | -23.10109 | 34135 ft | 489 kts | 272° |
| 2026-05-06 07:39 | 51.09311 | -23.20900 | 34135 ft | 489 kts | 272° |
| 2026-05-06 07:39 | 51.09470 | -23.31630 | 34135 ft | 490 kts | 272° |
| 2026-05-06 07:40 | 51.09620 | -23.42437 | 34135 ft | 490 kts | 272° |
| 2026-05-06 07:40 | 51.09761 | -23.53254 | 34135 ft | 491 kts | 272° |
| 2026-05-06 07:41 | 51.09890 | -23.63990 | 34135 ft | 491 kts | 272° |
| 2026-05-06 07:41 | 51.10011 | -23.74870 | 34137 ft | 493 kts | 271° |
| 2026-05-06 07:42 | 51.10121 | -23.85639 | 34137 ft | 493 kts | 271° |
| 2026-05-06 07:42 | 51.10222 | -23.96461 | 34137 ft | 492 kts | 271° |
| 2026-05-06 07:43 | 51.10313 | -24.07314 | 34138 ft | 492 kts | 271° |
| 2026-05-06 07:43 | 51.10393 | -24.18144 | 34137 ft | 492 kts | 271° |
| 2026-05-06 07:44 | 51.10463 | -24.28894 | 34132 ft | 493 kts | 270° |
| 2026-05-06 07:44 | 51.10524 | -24.39775 | 34129 ft | 493 kts | 270° |
| 2026-05-06 07:45 | 51.10575 | -24.50562 | 34128 ft | 494 kts | 270° |
| 2026-05-06 07:45 | 51.10616 | -24.61477 | 34123 ft | 495 kts | 270° |
| 2026-05-06 07:46 | 51.10646 | -24.72311 | 34126 ft | 494 kts | 269° |
| 2026-05-06 07:46 | 51.10667 | -24.83212 | 34119 ft | 495 kts | 269° |
| 2026-05-06 07:47 | 51.10678 | -24.94061 | 34118 ft | 495 kts | 269° |
| 2026-05-06 07:47 | 51.10678 | -25.04968 | 34118 ft | 495 kts | 269° |
| 2026-05-06 07:48 | 51.10669 | -25.15808 | 34117 ft | 496 kts | 269° |
| 2026-05-06 07:48 | 51.10649 | -25.26731 | 34109 ft | 494 kts | 269° |
| 2026-05-06 07:49 | 51.10619 | -25.37541 | 34110 ft | 494 kts | 269° |
| 2026-05-06 07:49 | 51.10579 | -25.48369 | 34106 ft | 494 kts | 269° |
| 2026-05-06 07:50 | 51.10530 | -25.59215 | 34099 ft | 493 kts | 269° |
| 2026-05-06 07:50 | 51.10470 | -25.70064 | 34100 ft | 493 kts | 268° |
| 2026-05-06 07:51 | 51.10400 | -25.80914 | 34095 ft | 493 kts | 268° |
| 2026-05-06 07:51 | 51.10320 | -25.91776 | 34098 ft | 491 kts | 268° |
| 2026-05-06 07:52 | 51.10231 | -26.02473 | 34092 ft | 491 kts | 268° |
| 2026-05-06 07:52 | 51.10131 | -26.13342 | 34092 ft | 490 kts | 268° |
| 2026-05-06 07:53 | 51.10023 | -26.24002 | 34091 ft | 488 kts | 268° |
| 2026-05-06 07:53 | 51.09905 | -26.34750 | 34096 ft | 488 kts | 268° |
| 2026-05-06 07:54 | 51.09776 | -26.45468 | 34093 ft | 488 kts | 268° |
| 2026-05-06 07:54 | 51.09639 | -26.56192 | 34086 ft | 488 kts | 268° |
| 2026-05-06 07:55 | 51.09491 | -26.66906 | 34080 ft | 486 kts | 266° |
| 2026-05-06 07:55 | 51.09335 | -26.77558 | 34086 ft | 486 kts | 266° |
| 2026-05-06 07:56 | 51.09168 | -26.88204 | 34087 ft | 485 kts | 267° |
| 2026-05-06 07:56 | 51.08991 | -26.98927 | 34082 ft | 484 kts | 266° |
| 2026-05-06 07:57 | 51.08807 | -27.09468 | 34071 ft | 484 kts | 266° |
| 2026-05-06 07:57 | 51.08612 | -27.20121 | 34073 ft | 483 kts | 266° |
| 2026-05-06 07:58 | 51.08408 | -27.30710 | 34062 ft | 483 kts | 266° |
| 2026-05-06 07:58 | 51.08193 | -27.41379 | 34056 ft | 482 kts | 267° |
| 2026-05-06 07:59 | 51.07970 | -27.51963 | 34060 ft | 482 kts | 266° |
| 2026-05-06 07:59 | 51.07738 | -27.62550 | 34058 ft | 482 kts | 266° |
| 2026-05-06 08:00 | 51.07497 | -27.73096 | 34054 ft | 481 kts | 266° |
| 2026-05-06 08:00 | 51.07245 | -27.83697 | 34055 ft | 480 kts | 266° |
| 2026-05-06 08:01 | 51.06985 | -27.94246 | 34056 ft | 481 kts | 266° |
| 2026-05-06 08:01 | 51.06714 | -28.04830 | 34047 ft | 479 kts | 266° |
| 2026-05-06 08:02 | 51.06438 | -28.15256 | 34049 ft | 481 kts | 266° |
| 2026-05-06 08:02 | 51.06147 | -28.25856 | 34041 ft | 481 kts | 266° |
| 2026-05-06 08:03 | 51.05850 | -28.36399 | 34043 ft | 481 kts | 266° |
| 2026-05-06 08:03 | 51.05541 | -28.46966 | 34043 ft | 483 kts | 265° |
| 2026-05-06 08:04 | 51.05225 | -28.57484 | 34044 ft | 482 kts | 265° |
| 2026-05-06 08:04 | 51.04896 | -28.68074 | 34040 ft | 480 kts | 265° |
| 2026-05-06 08:05 | 51.04560 | -28.78616 | 34038 ft | 481 kts | 265° |
| 2026-05-06 08:05 | 51.04213 | -28.89204 | 34035 ft | 481 kts | 265° |
| 2026-05-06 08:06 | 51.03857 | -28.99734 | 34032 ft | 482 kts | 265° |
| 2026-05-06 08:06 | 51.03490 | -29.10328 | 34026 ft | 483 kts | 265° |
| 2026-05-06 08:07 | 51.03117 | -29.20861 | 34029 ft | 482 kts | 265° |
| 2026-05-06 08:07 | 51.02729 | -29.31486 | 34033 ft | 481 kts | 264° |
| 2026-05-06 08:08 | 51.02338 | -29.41969 | 34031 ft | 483 kts | 265° |
| 2026-05-06 08:08 | 51.01931 | -29.52601 | 34031 ft | 482 kts | 265° |
| 2026-05-06 08:09 | 51.01522 | -29.63037 | 34028 ft | 483 kts | 264° |
| 2026-05-06 08:09 | 51.01098 | -29.73643 | 34028 ft | 484 kts | 264° |
| 2026-05-06 08:10 | 51.00661 | -29.84284 | 34032 ft | 482 kts | 264° |
| 2026-05-06 08:10 | 51.00216 | -29.94916 | 34027 ft | 485 kts | 264° |
| 2026-05-06 08:11 | 50.99870 | -30.05489 | 34028 ft | 485 kts | 267° |
| 2026-05-06 08:11 | 50.99823 | -30.16163 | 34019 ft | 485 kts | 267° |
| 2026-05-06 08:12 | 50.99755 | -30.26723 | 34019 ft | 486 kts | 267° |
| 2026-05-06 08:12 | 50.99665 | -30.37437 | 34029 ft | 485 kts | 267° |
| 2026-05-06 08:13 | 50.99559 | -30.48107 | 34035 ft | 487 kts | 267° |
| 2026-05-06 08:13 | 50.99440 | -30.58816 | 34036 ft | 486 kts | 267° |
| 2026-05-06 08:14 | 50.99310 | -30.69443 | 34036 ft | 487 kts | 266° |
| 2026-05-06 08:14 | 50.99169 | -30.80093 | 34053 ft | 488 kts | 266° |
| 2026-05-06 08:15 | 50.99017 | -30.90860 | 34049 ft | 489 kts | 266° |
| 2026-05-06 08:15 | 50.98854 | -31.01586 | 34042 ft | 489 kts | 266° |
| 2026-05-06 08:16 | 50.98680 | -31.12422 | 34036 ft | 489 kts | 266° |
| 2026-05-06 08:16 | 50.98497 | -31.23207 | 34040 ft | 490 kts | 266° |
| 2026-05-06 08:17 | 50.98304 | -31.33977 | 34059 ft | 490 kts | 266° |
| 2026-05-06 08:17 | 50.98101 | -31.44756 | 34049 ft | 489 kts | 266° |
| 2026-05-06 08:18 | 50.97889 | -31.55488 | 34070 ft | 490 kts | 266° |
| 2026-05-06 08:18 | 50.97666 | -31.66281 | 34060 ft | 490 kts | 266° |
| 2026-05-06 08:19 | 50.97433 | -31.77063 | 34055 ft | 490 kts | 266° |
| 2026-05-06 08:19 | 50.97190 | -31.87861 | 34068 ft | 492 kts | 266° |
| 2026-05-06 08:20 | 50.96937 | -31.98644 | 34074 ft | 492 kts | 266° |
| 2026-05-06 08:20 | 50.96673 | -32.09480 | 34080 ft | 492 kts | 266° |
| 2026-05-06 08:21 | 50.96402 | -32.20195 | 34084 ft | 491 kts | 266° |
| 2026-05-06 08:21 | 50.96120 | -32.30941 | 34087 ft | 490 kts | 266° |
| 2026-05-06 08:22 | 50.95828 | -32.41692 | 34091 ft | 492 kts | 266° |
| 2026-05-06 08:22 | 50.95525 | -32.52515 | 34094 ft | 492 kts | 266° |
| 2026-05-06 08:23 | 50.95213 | -32.63261 | 34094 ft | 492 kts | 266° |
| 2026-05-06 08:23 | 50.94889 | -32.74089 | 34101 ft | 491 kts | 266° |
| 2026-05-06 08:24 | 50.94557 | -32.84855 | 34104 ft | 491 kts | 265° |
| 2026-05-06 08:24 | 50.94215 | -32.95644 | 34112 ft | 490 kts | 266° |
| 2026-05-06 08:25 | 50.93864 | -33.06369 | 34109 ft | 491 kts | 266° |
| 2026-05-06 08:25 | 50.93501 | -33.17169 | 34110 ft | 490 kts | 265° |
| 2026-05-06 08:26 | 50.93132 | -33.27855 | 34114 ft | 491 kts | 266° |
| 2026-05-06 08:26 | 50.92750 | -33.38627 | 34111 ft | 492 kts | 266° |
| 2026-05-06 08:27 | 50.92357 | -33.49428 | 34116 ft | 491 kts | 266° |
| 2026-05-06 08:27 | 50.91956 | -33.60180 | 34114 ft | 490 kts | 266° |
| 2026-05-06 08:28 | 50.91547 | -33.70873 | 34114 ft | 489 kts | 265° |
| 2026-05-06 08:28 | 50.91127 | -33.81608 | 34116 ft | 490 kts | 265° |
| 2026-05-06 08:29 | 50.90697 | -33.92328 | 34112 ft | 489 kts | 265° |
| 2026-05-06 08:29 | 50.90256 | -34.03083 | 34113 ft | 490 kts | 265° |
| 2026-05-06 08:30 | 50.89804 | -34.13856 | 34112 ft | 490 kts | 265° |
| 2026-05-06 08:30 | 50.89344 | -34.24597 | 34113 ft | 489 kts | 265° |
| 2026-05-06 08:31 | 50.88877 | -34.35255 | 34111 ft | 489 kts | 265° |
| 2026-05-06 08:31 | 50.88399 | -34.45956 | 34119 ft | 489 kts | 265° |
| 2026-05-06 08:32 | 50.87910 | -34.56673 | 34116 ft | 489 kts | 266° |
| 2026-05-06 08:32 | 50.87411 | -34.67397 | 34112 ft | 490 kts | 265° |
| 2026-05-06 08:33 | 50.86902 | -34.78112 | 34117 ft | 490 kts | 265° |
| 2026-05-06 08:33 | 50.86383 | -34.88826 | 34116 ft | 490 kts | 265° |
| 2026-05-06 08:34 | 50.85585 | -35.04932 | 34118 ft | 489 kts | 265° |
| 2026-05-06 08:35 | 50.85043 | -35.15621 | 34118 ft | 488 kts | 265° |
| 2026-05-06 08:35 | 50.84494 | -35.26253 | 34114 ft | 488 kts | 265° |
| 2026-05-06 08:36 | 50.83932 | -35.36946 | 34114 ft | 488 kts | 265° |
| 2026-05-06 08:36 | 50.83361 | -35.47606 | 34119 ft | 488 kts | 265° |
| 2026-05-06 08:37 | 50.82783 | -35.58242 | 34112 ft | 488 kts | 265° |
| 2026-05-06 08:37 | 50.82193 | -35.68904 | 34120 ft | 488 kts | 265° |
| 2026-05-06 08:38 | 50.81591 | -35.79583 | 34116 ft | 488 kts | 265° |
| 2026-05-06 08:38 | 50.80981 | -35.90262 | 34116 ft | 487 kts | 265° |
| 2026-05-06 08:39 | 50.80368 | -36.00800 | 34114 ft | 488 kts | 265° |
| 2026-05-06 08:39 | 50.79738 | -36.11472 | 34116 ft | 487 kts | 265° |
| 2026-05-06 08:40 | 50.79101 | -36.22105 | 34120 ft | 487 kts | 265° |
| 2026-05-06 08:40 | 50.78455 | -36.32707 | 34117 ft | 485 kts | 265° |
| 2026-05-06 08:41 | 50.77803 | -36.43249 | 34119 ft | 486 kts | 265° |
| 2026-05-06 08:41 | 50.77137 | -36.53873 | 34118 ft | 485 kts | 265° |
| 2026-05-06 08:42 | 50.76466 | -36.64422 | 34120 ft | 485 kts | 265° |
| 2026-05-06 08:42 | 50.75780 | -36.75031 | 34125 ft | 486 kts | 264° |
| 2026-05-06 08:43 | 50.75087 | -36.85617 | 34123 ft | 487 kts | 265° |
| 2026-05-06 08:43 | 50.74383 | -36.96205 | 34126 ft | 487 kts | 265° |
| 2026-05-06 08:44 | 50.73672 | -37.06775 | 34120 ft | 485 kts | 265° |
| 2026-05-06 08:44 | 50.72953 | -37.17291 | 34119 ft | 484 kts | 265° |
| 2026-05-06 08:45 | 50.72229 | -37.27755 | 34122 ft | 483 kts | 265° |
| 2026-05-06 08:45 | 50.71493 | -37.38266 | 34115 ft | 484 kts | 265° |
| 2026-05-06 08:46 | 50.70742 | -37.48839 | 34113 ft | 484 kts | 265° |
| 2026-05-06 08:46 | 50.69989 | -37.59290 | 34116 ft | 483 kts | 265° |
| 2026-05-06 08:47 | 50.69222 | -37.69820 | 34127 ft | 484 kts | 264° |
| 2026-05-06 08:47 | 50.68446 | -37.80341 | 34121 ft | 483 kts | 264° |
| 2026-05-06 08:48 | 50.67658 | -37.90873 | 34122 ft | 483 kts | 265° |
| 2026-05-06 08:48 | 50.66864 | -38.01366 | 34122 ft | 482 kts | 264° |
| 2026-05-06 08:49 | 50.66065 | -38.11803 | 34126 ft | 481 kts | 265° |
| 2026-05-06 08:49 | 50.65257 | -38.22231 | 34127 ft | 482 kts | 265° |
| 2026-05-06 08:50 | 50.64438 | -38.32672 | 34117 ft | 482 kts | 265° |
| 2026-05-06 08:50 | 50.63609 | -38.43130 | 34126 ft | 481 kts | 265° |
| 2026-05-06 08:51 | 50.62772 | -38.53548 | 34117 ft | 482 kts | 265° |
| 2026-05-06 08:51 | 50.61925 | -38.63987 | 34126 ft | 481 kts | 265° |
| 2026-05-06 08:52 | 50.61070 | -38.74398 | 34131 ft | 483 kts | 265° |
| 2026-05-06 08:52 | 50.60205 | -38.84822 | 34127 ft | 480 kts | 265° |
| 2026-05-06 08:53 | 50.59333 | -38.95205 | 34133 ft | 480 kts | 265° |
| 2026-05-06 08:53 | 50.58445 | -39.05665 | 34135 ft | 479 kts | 265° |
| 2026-05-06 08:54 | 50.57558 | -39.16005 | 34127 ft | 479 kts | 265° |
| 2026-05-06 08:54 | 50.56662 | -39.26334 | 34120 ft | 479 kts | 265° |
| 2026-05-06 08:55 | 50.55753 | -39.36717 | 34124 ft | 479 kts | 265° |
| 2026-05-06 08:55 | 50.54836 | -39.47073 | 34132 ft | 478 kts | 265° |
| 2026-05-06 08:56 | 50.53916 | -39.57342 | 34131 ft | 477 kts | 265° |
| 2026-05-06 08:56 | 50.52992 | -39.67578 | 34131 ft | 476 kts | 265° |
| 2026-05-06 08:57 | 50.52053 | -39.77857 | 34136 ft | 477 kts | 265° |
| 2026-05-06 08:57 | 50.51100 | -39.88189 | 34136 ft | 475 kts | 265° |
| 2026-05-06 08:58 | 50.50063 | -39.98377 | 34131 ft | 478 kts | 261° |
| 2026-05-06 08:58 | 50.48246 | -40.08400 | 34135 ft | 479 kts | 258° |
| 2026-05-06 08:59 | 50.46318 | -40.18425 | 34133 ft | 481 kts | 258° |
| 2026-05-06 08:59 | 50.44374 | -40.28361 | 34135 ft | 479 kts | 258° |
| 2026-05-06 09:00 | 50.42408 | -40.38299 | 34145 ft | 479 kts | 258° |
| 2026-05-06 09:00 | 50.40431 | -40.48207 | 34133 ft | 477 kts | 258° |
| 2026-05-06 09:01 | 50.38438 | -40.58127 | 34135 ft | 479 kts | 258° |
| 2026-05-06 09:01 | 50.36438 | -40.68026 | 34135 ft | 479 kts | 258° |
| 2026-05-06 09:02 | 50.34415 | -40.77977 | 34150 ft | 478 kts | 258° |
| 2026-05-06 09:02 | 50.32405 | -40.87818 | 34144 ft | 476 kts | 258° |
| 2026-05-06 09:03 | 50.30386 | -40.97651 | 34140 ft | 477 kts | 258° |
| 2026-05-06 09:03 | 50.28363 | -41.07456 | 34159 ft | 477 kts | 258° |
| 2026-05-06 09:04 | 50.26328 | -41.17266 | 34141 ft | 475 kts | 259° |
| 2026-05-06 09:04 | 50.24276 | -41.27113 | 34163 ft | 475 kts | 259° |
| 2026-05-06 09:05 | 50.22236 | -41.36854 | 34162 ft | 475 kts | 259° |
| 2026-05-06 09:05 | 50.20189 | -41.46573 | 34160 ft | 472 kts | 260° |
| 2026-05-06 09:06 | 50.18142 | -41.56254 | 34142 ft | 469 kts | 260° |
| 2026-05-06 09:06 | 50.16103 | -41.65850 | 34146 ft | 471 kts | 259° |
| 2026-05-06 09:07 | 50.14045 | -41.75491 | 34147 ft | 470 kts | 259° |
| 2026-05-06 09:07 | 50.11974 | -41.85149 | 34144 ft | 470 kts | 260° |
| 2026-05-06 09:08 | 50.09897 | -41.94783 | 34153 ft | 469 kts | 261° |
| 2026-05-06 09:08 | 50.07823 | -42.04361 | 34163 ft | 468 kts | 260° |
| 2026-05-06 09:09 | 50.05746 | -42.13911 | 34150 ft | 468 kts | 261° |
| 2026-05-06 09:09 | 50.03656 | -42.23474 | 34145 ft | 467 kts | 260° |
| 2026-05-06 09:10 | 50.01585 | -42.32905 | 34150 ft | 467 kts | 261° |
| 2026-05-06 09:10 | 49.99477 | -42.42469 | 34154 ft | 468 kts | 260° |
| 2026-05-06 09:11 | 49.97353 | -42.52056 | 34148 ft | 470 kts | 260° |
| 2026-05-06 09:11 | 49.95221 | -42.61628 | 34145 ft | 468 kts | 261° |
| 2026-05-06 09:12 | 49.93080 | -42.71202 | 34161 ft | 470 kts | 259° |
| 2026-05-06 09:12 | 49.90936 | -42.80747 | 34159 ft | 470 kts | 259° |
| 2026-05-06 09:13 | 49.88772 | -42.90338 | 34140 ft | 471 kts | 259° |
| 2026-05-06 09:13 | 49.86615 | -42.99849 | 34141 ft | 469 kts | 259° |
| 2026-05-06 09:14 | 49.84455 | -43.09332 | 34152 ft | 468 kts | 259° |
| 2026-05-06 09:14 | 49.82280 | -43.18851 | 34159 ft | 471 kts | 259° |
| 2026-05-06 09:15 | 49.80101 | -43.28329 | 34166 ft | 470 kts | 259° |
| 2026-05-06 09:15 | 49.77909 | -43.37828 | 34163 ft | 469 kts | 259° |
| 2026-05-06 09:16 | 49.75709 | -43.47322 | 34166 ft | 472 kts | 259° |
| 2026-05-06 09:16 | 49.73484 | -43.56878 | 34165 ft | 471 kts | 259° |
| 2026-05-06 09:17 | 49.71267 | -43.66355 | 34165 ft | 472 kts | 258° |
| 2026-05-06 09:17 | 49.69038 | -43.75846 | 34176 ft | 472 kts | 258° |
| 2026-05-06 09:18 | 49.66787 | -43.85390 | 34174 ft | 474 kts | 258° |
| 2026-05-06 09:18 | 49.64523 | -43.94937 | 34173 ft | 472 kts | 258° |
| 2026-05-06 09:19 | 49.62278 | -44.04368 | 34173 ft | 473 kts | 258° |
| 2026-05-06 09:19 | 49.60024 | -44.13797 | 34175 ft | 472 kts | 258° |
| 2026-05-06 09:20 | 49.57753 | -44.23257 | 34178 ft | 473 kts | 258° |
| 2026-05-06 09:20 | 49.55479 | -44.32688 | 34170 ft | 471 kts | 258° |
| 2026-05-06 09:21 | 49.53197 | -44.42108 | 34169 ft | 471 kts | 258° |
| 2026-05-06 09:21 | 49.50913 | -44.51504 | 34172 ft | 472 kts | 257° |
| 2026-05-06 09:22 | 49.48609 | -44.60938 | 34179 ft | 475 kts | 257° |
| 2026-05-06 09:22 | 49.46285 | -44.70413 | 34187 ft | 472 kts | 257° |
| 2026-05-06 09:23 | 49.43958 | -44.79862 | 34179 ft | 476 kts | 257° |
| 2026-05-06 09:23 | 49.41608 | -44.89357 | 34192 ft | 473 kts | 257° |
| 2026-05-06 09:24 | 49.39254 | -44.98833 | 34185 ft | 476 kts | 257° |
| 2026-05-06 09:24 | 49.36893 | -45.08296 | 34190 ft | 475 kts | 257° |
| 2026-05-06 09:25 | 49.34534 | -45.17712 | 34187 ft | 477 kts | 256° |
| 2026-05-06 09:25 | 49.32151 | -45.27181 | 34181 ft | 476 kts | 256° |
| 2026-05-06 09:26 | 49.29771 | -45.36601 | 34192 ft | 476 kts | 256° |
| 2026-05-06 09:26 | 49.27381 | -45.46019 | 34193 ft | 476 kts | 257° |
| 2026-05-06 09:27 | 49.24974 | -45.55465 | 34187 ft | 475 kts | 256° |
| 2026-05-06 09:27 | 49.22559 | -45.64905 | 34179 ft | 478 kts | 257° |
| 2026-05-06 09:28 | 49.20146 | -45.74298 | 34184 ft | 477 kts | 256° |
| 2026-05-06 09:28 | 49.17705 | -45.83763 | 34181 ft | 479 kts | 256° |
| 2026-05-06 09:29 | 49.15261 | -45.93196 | 34185 ft | 479 kts | 256° |
| 2026-05-06 09:29 | 49.12806 | -46.02636 | 34182 ft | 479 kts | 256° |
| 2026-05-06 09:30 | 49.10342 | -46.12066 | 34180 ft | 478 kts | 256° |
| 2026-05-06 09:30 | 49.07893 | -46.21402 | 34182 ft | 479 kts | 256° |
| 2026-05-06 09:31 | 49.05413 | -46.30822 | 34179 ft | 477 kts | 256° |
| 2026-05-06 09:31 | 49.02942 | -46.40168 | 34184 ft | 480 kts | 256° |
| 2026-05-06 09:32 | 49.00444 | -46.49577 | 34184 ft | 478 kts | 255° |
| 2026-05-06 09:32 | 48.97947 | -46.58941 | 34183 ft | 478 kts | 256° |
| 2026-05-06 09:33 | 48.95457 | -46.68249 | 34187 ft | 480 kts | 255° |
| 2026-05-06 09:33 | 48.92938 | -46.77620 | 34187 ft | 479 kts | 255° |
| 2026-05-06 09:34 | 48.90409 | -46.86995 | 34192 ft | 480 kts | 255° |
| 2026-05-06 09:34 | 48.87885 | -46.96312 | 34184 ft | 478 kts | 255° |
| 2026-05-06 09:35 | 48.85345 | -47.05651 | 34171 ft | 478 kts | 254° |
| 2026-05-06 09:35 | 48.82817 | -47.14912 | 34164 ft | 478 kts | 254° |
| 2026-05-06 09:36 | 48.80265 | -47.24218 | 34173 ft | 477 kts | 254° |
| 2026-05-06 09:36 | 48.77700 | -47.33542 | 34179 ft | 479 kts | 254° |
| 2026-05-06 09:37 | 48.75143 | -47.42798 | 34176 ft | 479 kts | 254° |
| 2026-05-06 09:37 | 48.72572 | -47.52062 | 34167 ft | 476 kts | 254° |
| 2026-05-06 09:38 | 48.69994 | -47.61323 | 34175 ft | 479 kts | 254° |
| 2026-05-06 09:38 | 48.67407 | -47.70577 | 34182 ft | 479 kts | 253° |
| 2026-05-06 09:39 | 48.64798 | -47.79871 | 34182 ft | 478 kts | 253° |
| 2026-05-06 09:39 | 48.62203 | -47.89084 | 34179 ft | 478 kts | 253° |
| 2026-05-06 09:40 | 48.59597 | -47.98298 | 34182 ft | 478 kts | 253° |
| 2026-05-06 09:40 | 48.55675 | -48.12100 | 34178 ft | 478 kts | 253° |
| 2026-05-06 09:41 | 48.53049 | -48.21297 | 34187 ft | 479 kts | 253° |
| 2026-05-06 09:41 | 48.50395 | -48.30555 | 34188 ft | 479 kts | 253° |
| 2026-05-06 09:42 | 48.47765 | -48.39695 | 34182 ft | 480 kts | 253° |
| 2026-05-06 09:42 | 48.45113 | -48.48877 | 34188 ft | 481 kts | 252° |
| 2026-05-06 09:43 | 48.42430 | -48.58130 | 34198 ft | 480 kts | 252° |
| 2026-05-06 09:43 | 48.39761 | -48.67301 | 34191 ft | 479 kts | 252° |
| 2026-05-06 09:44 | 48.37095 | -48.76427 | 34188 ft | 480 kts | 252° |
| 2026-05-06 09:44 | 48.34409 | -48.85588 | 34203 ft | 480 kts | 252° |
| 2026-05-06 09:45 | 48.31719 | -48.94724 | 34198 ft | 480 kts | 252° |
| 2026-05-06 09:45 | 48.29022 | -49.03855 | 34204 ft | 479 kts | 252° |
| 2026-05-06 09:46 | 48.26321 | -49.12960 | 34190 ft | 478 kts | 252° |
| 2026-05-06 09:46 | 48.23610 | -49.22071 | 34195 ft | 480 kts | 251° |
| 2026-05-06 09:47 | 48.20903 | -49.31130 | 34195 ft | 480 kts | 251° |
| 2026-05-06 09:47 | 48.18166 | -49.40258 | 34207 ft | 480 kts | 251° |
| 2026-05-06 09:48 | 48.15430 | -49.49350 | 34195 ft | 480 kts | 251° |
| 2026-05-06 09:48 | 48.12704 | -49.58372 | 34199 ft | 479 kts | 251° |
| 2026-05-06 09:49 | 48.09959 | -49.67428 | 34202 ft | 480 kts | 250° |
| 2026-05-06 09:49 | 48.07200 | -49.76495 | 34200 ft | 479 kts | 250° |
| 2026-05-06 09:50 | 48.04451 | -49.85494 | 34200 ft | 479 kts | 250° |
| 2026-05-06 09:50 | 48.01684 | -49.94520 | 34197 ft | 478 kts | 250° |
| 2026-05-06 09:51 | 47.98982 | -50.03593 | 34199 ft | 477 kts | 254° |
| 2026-05-06 09:51 | 47.96810 | -50.12868 | 34197 ft | 475 kts | 255° |
| 2026-05-06 09:52 | 47.94631 | -50.22124 | 34196 ft | 476 kts | 255° |
| 2026-05-06 09:52 | 47.92408 | -50.31419 | 34200 ft | 475 kts | 255° |
| 2026-05-06 09:53 | 47.90184 | -50.40632 | 34190 ft | 476 kts | 255° |
| 2026-05-06 09:53 | 47.87930 | -50.49902 | 34176 ft | 477 kts | 255° |
| 2026-05-06 09:54 | 47.85676 | -50.59119 | 34173 ft | 477 kts | 255° |
| 2026-05-06 09:54 | 47.83454 | -50.68161 | 34181 ft | 476 kts | 253° |
| 2026-05-06 09:55 | 47.81225 | -50.77192 | 34190 ft | 476 kts | 254° |
| 2026-05-06 09:55 | 47.78950 | -50.86369 | 34195 ft | 474 kts | 253° |
| 2026-05-06 09:56 | 47.76671 | -50.95529 | 34194 ft | 476 kts | 253° |
| 2026-05-06 09:56 | 47.74379 | -51.04697 | 34200 ft | 477 kts | 253° |
| 2026-05-06 09:57 | 47.72076 | -51.13871 | 34198 ft | 476 kts | 253° |
| 2026-05-06 09:57 | 47.69765 | -51.23042 | 34188 ft | 474 kts | 253° |
| 2026-05-06 09:58 | 47.67456 | -51.32169 | 34191 ft | 475 kts | 253° |
| 2026-05-06 09:58 | 47.65136 | -51.41299 | 34196 ft | 474 kts | 253° |
| 2026-05-06 09:59 | 47.62814 | -51.50404 | 34183 ft | 474 kts | 253° |
| 2026-05-06 09:59 | 47.60490 | -51.59478 | 34190 ft | 475 kts | 253° |
| 2026-05-06 10:00 | 47.58186 | -51.68439 | 34199 ft | 475 kts | 252° |
| 2026-05-06 10:00 | 47.55845 | -51.77510 | 34183 ft | 475 kts | 252° |
| 2026-05-06 10:01 | 47.53486 | -51.86612 | 34191 ft | 476 kts | 252° |
| 2026-05-06 10:01 | 47.51160 | -51.95645 | 34173 ft | 474 kts | 255° |
| 2026-05-06 10:02 | 47.50113 | -52.05122 | 34181 ft | 468 kts | 271° |
| 2026-05-06 10:02 | 47.50311 | -52.14637 | 34186 ft | 467 kts | 273° |
| 2026-05-06 10:03 | 47.50541 | -52.24197 | 34187 ft | 467 kts | 273° |
| 2026-05-06 10:03 | 47.50755 | -52.33682 | 34187 ft | 466 kts | 273° |
| 2026-05-06 10:04 | 47.50956 | -52.43118 | 34184 ft | 467 kts | 273° |
| 2026-05-06 10:04 | 47.51147 | -52.52541 | 34185 ft | 466 kts | 273° |
| 2026-05-06 10:05 | 47.51328 | -52.61875 | 34169 ft | 466 kts | 273° |
| 2026-05-06 10:05 | 47.51500 | -52.71219 | 34175 ft | 466 kts | 272° |
| 2026-05-06 10:06 | 47.51666 | -52.80653 | 34178 ft | 467 kts | 272° |
| 2026-05-06 10:06 | 47.51825 | -52.90137 | 34179 ft | 467 kts | 271° |
| 2026-05-06 10:07 | 47.51975 | -52.99580 | 34172 ft | 467 kts | 271° |
| 2026-05-06 10:07 | 47.52119 | -53.09129 | 34171 ft | 467 kts | 271° |
| 2026-05-06 10:08 | 47.52256 | -53.18665 | 34166 ft | 469 kts | 271° |
| 2026-05-06 10:08 | 47.52383 | -53.28173 | 34169 ft | 468 kts | 271° |
| 2026-05-06 10:09 | 47.52504 | -53.37708 | 34168 ft | 470 kts | 271° |
| 2026-05-06 10:09 | 47.52616 | -53.47301 | 34166 ft | 471 kts | 271° |
| 2026-05-06 10:10 | 47.52721 | -53.56843 | 34160 ft | 470 kts | 271° |
| 2026-05-06 10:10 | 47.52818 | -53.66486 | 34152 ft | 471 kts | 270° |
| 2026-05-06 10:11 | 47.52907 | -53.76094 | 34168 ft | 471 kts | 270° |
| 2026-05-06 10:11 | 47.52989 | -53.85810 | 34165 ft | 472 kts | 270° |
| 2026-05-06 10:12 | 47.53061 | -53.95358 | 34178 ft | 472 kts | 270° |
| 2026-05-06 10:12 | 47.53126 | -54.05014 | 34176 ft | 474 kts | 270° |
| 2026-05-06 10:13 | 47.53183 | -54.14518 | 34169 ft | 474 kts | 270° |
| 2026-05-06 10:13 | 47.53233 | -54.24261 | 34154 ft | 474 kts | 270° |
| 2026-05-06 10:14 | 47.53274 | -54.34005 | 34167 ft | 475 kts | 270° |
| 2026-05-06 10:14 | 47.53307 | -54.43756 | 34162 ft | 476 kts | 270° |
| 2026-05-06 10:15 | 47.53332 | -54.53533 | 34162 ft | 476 kts | 270° |
| 2026-05-06 10:15 | 47.53348 | -54.63309 | 34152 ft | 475 kts | 270° |
| 2026-05-06 10:16 | 47.53357 | -54.73031 | 34159 ft | 476 kts | 269° |
| 2026-05-06 10:16 | 47.53357 | -54.82785 | 34144 ft | 476 kts | 269° |
| 2026-05-06 10:17 | 47.53348 | -54.92508 | 34145 ft | 476 kts | 269° |
| 2026-05-06 10:17 | 47.53332 | -55.02261 | 34143 ft | 476 kts | 269° |
| 2026-05-06 10:18 | 47.53307 | -55.12000 | 34151 ft | 478 kts | 269° |
| 2026-05-06 10:18 | 47.53274 | -55.21744 | 34147 ft | 478 kts | 269° |
| 2026-05-06 10:19 | 47.53232 | -55.31587 | 34151 ft | 477 kts | 269° |
| 2026-05-06 10:19 | 47.53182 | -55.41427 | 34145 ft | 479 kts | 269° |
| 2026-05-06 10:20 | 47.53124 | -55.51155 | 34145 ft | 479 kts | 269° |
| 2026-05-06 10:20 | 47.53059 | -55.60835 | 34134 ft | 478 kts | 269° |
| 2026-05-06 10:21 | 47.52984 | -55.70560 | 34139 ft | 479 kts | 268° |
| 2026-05-06 10:21 | 47.52900 | -55.80417 | 34135 ft | 479 kts | 268° |
| 2026-05-06 10:22 | 47.52809 | -55.90213 | 34128 ft | 479 kts | 268° |
| 2026-05-06 10:22 | 47.52710 | -56.00005 | 34118 ft | 478 kts | 267° |
| 2026-05-06 10:23 | 47.52602 | -56.09738 | 34125 ft | 478 kts | 267° |
| 2026-05-06 10:23 | 47.52486 | -56.19478 | 34119 ft | 479 kts | 267° |
| 2026-05-06 10:24 | 47.52361 | -56.29284 | 34113 ft | 478 kts | 267° |
| 2026-05-06 10:24 | 47.52229 | -56.38997 | 34109 ft | 477 kts | 267° |
| 2026-05-06 10:25 | 47.52089 | -56.48713 | 34105 ft | 477 kts | 267° |
| 2026-05-06 10:25 | 47.51940 | -56.58479 | 34096 ft | 476 kts | 267° |
| 2026-05-06 10:26 | 47.51788 | -56.67918 | 34104 ft | 477 kts | 266° |
| 2026-05-06 10:26 | 47.51622 | -56.77692 | 34107 ft | 477 kts | 266° |
| 2026-05-06 10:27 | 47.51451 | -56.87281 | 34110 ft | 477 kts | 266° |
| 2026-05-06 10:27 | 47.51270 | -56.96988 | 34105 ft | 477 kts | 266° |
| 2026-05-06 10:28 | 47.51080 | -57.06760 | 34089 ft | 477 kts | 266° |
| 2026-05-06 10:28 | 47.50882 | -57.16513 | 34096 ft | 477 kts | 266° |
| 2026-05-06 10:29 | 47.50676 | -57.26204 | 34097 ft | 476 kts | 266° |
| 2026-05-06 10:29 | 47.50461 | -57.35987 | 34090 ft | 477 kts | 266° |
| 2026-05-06 10:30 | 47.50242 | -57.45552 | 34083 ft | 476 kts | 266° |
| 2026-05-06 10:30 | 47.50011 | -57.55316 | 34093 ft | 478 kts | 266° |
| 2026-05-06 10:31 | 47.49771 | -57.65065 | 34092 ft | 476 kts | 265° |
| 2026-05-06 10:31 | 47.49523 | -57.74840 | 34084 ft | 476 kts | 265° |
| 2026-05-06 10:32 | 47.49267 | -57.84586 | 34078 ft | 476 kts | 265° |
| 2026-05-06 10:32 | 47.49003 | -57.94316 | 34077 ft | 477 kts | 265° |
| 2026-05-06 10:33 | 47.48737 | -58.03820 | 34080 ft | 476 kts | 265° |
| 2026-05-06 10:33 | 47.48456 | -58.13592 | 34073 ft | 476 kts | 265° |
| 2026-05-06 10:34 | 47.48172 | -58.23182 | 34076 ft | 475 kts | 266° |
| 2026-05-06 10:34 | 47.47876 | -58.32872 | 34060 ft | 475 kts | 266° |
| 2026-05-06 10:35 | 47.47574 | -58.42533 | 34048 ft | 475 kts | 266° |
| 2026-05-06 10:35 | 47.47262 | -58.52230 | 34049 ft | 475 kts | 266° |
| 2026-05-06 10:36 | 47.46940 | -58.61978 | 34042 ft | 475 kts | 266° |
| 2026-05-06 10:36 | 47.46613 | -58.71634 | 34049 ft | 476 kts | 265° |
| 2026-05-06 10:37 | 47.46276 | -58.81348 | 34037 ft | 475 kts | 265° |
| 2026-05-06 10:37 | 47.45929 | -58.91097 | 34039 ft | 474 kts | 265° |
| 2026-05-06 10:38 | 47.45576 | -59.00784 | 34014 ft | 474 kts | 265° |
| 2026-05-06 10:38 | 47.45216 | -59.10459 | 34019 ft | 475 kts | 265° |
| 2026-05-06 10:39 | 47.44846 | -59.20160 | 34008 ft | 473 kts | 265° |
| 2026-05-06 10:39 | 47.44470 | -59.29832 | 34021 ft | 474 kts | 265° |
| 2026-05-06 10:40 | 47.44088 | -59.39420 | 34010 ft | 472 kts | 265° |
| 2026-05-06 10:40 | 47.43697 | -59.49032 | 34012 ft | 473 kts | 265° |
| 2026-05-06 10:41 | 47.43298 | -59.58675 | 33996 ft | 472 kts | 265° |
| 2026-05-06 10:41 | 47.42892 | -59.68262 | 34008 ft | 471 kts | 265° |
| 2026-05-06 10:42 | 47.42478 | -59.77850 | 34001 ft | 470 kts | 265° |
| 2026-05-06 10:42 | 47.42055 | -59.87452 | 34000 ft | 471 kts | 265° |
| 2026-05-06 10:43 | 47.41626 | -59.97026 | 33987 ft | 470 kts | 265° |
| 2026-05-06 10:44 | 47.40965 | -60.11424 | 33983 ft | 470 kts | 265° |
| 2026-05-06 10:44 | 47.40518 | -60.20940 | 33984 ft | 470 kts | 265° |
| 2026-05-06 10:45 | 47.40058 | -60.30568 | 33974 ft | 470 kts | 265° |
| 2026-05-06 10:45 | 47.39592 | -60.40161 | 33978 ft | 471 kts | 265° |
| 2026-05-06 10:46 | 47.39120 | -60.49697 | 33983 ft | 471 kts | 265° |
| 2026-05-06 10:46 | 47.38637 | -60.59298 | 33977 ft | 471 kts | 265° |
| 2026-05-06 10:47 | 47.38146 | -60.68886 | 33992 ft | 471 kts | 264° |
| 2026-05-06 10:47 | 47.37648 | -60.78474 | 33979 ft | 470 kts | 264° |
| 2026-05-06 10:48 | 47.37143 | -60.88014 | 33979 ft | 470 kts | 264° |
| 2026-05-06 10:48 | 47.36631 | -60.97569 | 33978 ft | 470 kts | 264° |
| 2026-05-06 10:49 | 47.36108 | -61.07149 | 33974 ft | 470 kts | 264° |
| 2026-05-06 10:49 | 47.35580 | -61.16681 | 33958 ft | 467 kts | 264° |
| 2026-05-06 10:50 | 47.35046 | -61.26199 | 33947 ft | 466 kts | 264° |
| 2026-05-06 10:50 | 47.34506 | -61.35649 | 33955 ft | 467 kts | 264° |
| 2026-05-06 10:51 | 47.33958 | -61.45119 | 33943 ft | 464 kts | 264° |
| 2026-05-06 10:51 | 47.33405 | -61.54539 | 33953 ft | 465 kts | 264° |
| 2026-05-06 10:52 | 47.32858 | -61.63725 | 33943 ft | 462 kts | 264° |
| 2026-05-06 10:52 | 47.32292 | -61.73102 | 33948 ft | 461 kts | 264° |
| 2026-05-06 10:53 | 47.31722 | -61.82429 | 33952 ft | 461 kts | 264° |
| 2026-05-06 10:53 | 47.31148 | -61.91682 | 33939 ft | 459 kts | 264° |
| 2026-05-06 10:54 | 47.30568 | -62.00919 | 33937 ft | 460 kts | 263° |
| 2026-05-06 10:54 | 47.29984 | -62.10088 | 33943 ft | 460 kts | 264° |
| 2026-05-06 10:55 | 47.29384 | -62.19403 | 33942 ft | 459 kts | 263° |
| 2026-05-06 10:55 | 47.28782 | -62.28624 | 33948 ft | 459 kts | 263° |
| 2026-05-06 10:56 | 47.28170 | -62.37889 | 33939 ft | 457 kts | 263° |
| 2026-05-06 10:56 | 47.27556 | -62.47060 | 33935 ft | 457 kts | 263° |
| 2026-05-06 10:57 | 47.26930 | -62.56310 | 33924 ft | 456 kts | 263° |
| 2026-05-06 10:57 | 47.26298 | -62.65521 | 33922 ft | 454 kts | 263° |
| 2026-05-06 10:58 | 47.25676 | -62.74487 | 33932 ft | 453 kts | 263° |
| 2026-05-06 10:58 | 47.25029 | -62.83714 | 33927 ft | 455 kts | 263° |
| 2026-05-06 10:59 | 47.24379 | -62.92880 | 33922 ft | 453 kts | 262° |
| 2026-05-06 10:59 | 47.23725 | -63.01982 | 33926 ft | 453 kts | 263° |
| 2026-05-06 11:00 | 47.23075 | -63.10941 | 33913 ft | 455 kts | 262° |
| 2026-05-06 11:00 | 47.22398 | -63.20153 | 33919 ft | 454 kts | 262° |
| 2026-05-06 11:01 | 47.21722 | -63.29270 | 33913 ft | 453 kts | 262° |
| 2026-05-06 11:01 | 47.21035 | -63.38429 | 33908 ft | 453 kts | 262° |
| 2026-05-06 11:02 | 47.20344 | -63.47535 | 33905 ft | 452 kts | 262° |
| 2026-05-06 11:02 | 47.19644 | -63.56668 | 33906 ft | 453 kts | 262° |
| 2026-05-06 11:03 | 47.18939 | -63.65762 | 33903 ft | 453 kts | 261° |
| 2026-05-06 11:03 | 47.18222 | -63.74926 | 33907 ft | 452 kts | 261° |
| 2026-05-06 11:04 | 47.17503 | -63.84011 | 33912 ft | 453 kts | 261° |
| 2026-05-06 11:04 | 47.16774 | -63.93133 | 33897 ft | 453 kts | 261° |
| 2026-05-06 11:05 | 47.16038 | -64.02252 | 33884 ft | 452 kts | 261° |
| 2026-05-06 11:05 | 47.15292 | -64.11407 | 33889 ft | 450 kts | 261° |
| 2026-05-06 11:06 | 47.14542 | -64.20501 | 33883 ft | 450 kts | 261° |
| 2026-05-06 11:06 | 47.13790 | -64.29544 | 33882 ft | 450 kts | 261° |
| 2026-05-06 11:07 | 47.13024 | -64.38659 | 33881 ft | 449 kts | 262° |
| 2026-05-06 11:07 | 47.12252 | -64.47765 | 33878 ft | 450 kts | 262° |
| 2026-05-06 11:08 | 47.11481 | -64.56773 | 33877 ft | 448 kts | 262° |
| 2026-05-06 11:08 | 47.10698 | -64.65828 | 33882 ft | 449 kts | 261° |
| 2026-05-06 11:09 | 47.09909 | -64.74872 | 33893 ft | 448 kts | 262° |
| 2026-05-06 11:09 | 47.09110 | -64.83939 | 33888 ft | 447 kts | 262° |
| 2026-05-06 11:10 | 47.08313 | -64.92909 | 33887 ft | 450 kts | 262° |
| 2026-05-06 11:10 | 47.07503 | -65.01945 | 33872 ft | 447 kts | 262° |
| 2026-05-06 11:11 | 47.06690 | -65.10932 | 33881 ft | 446 kts | 262° |
| 2026-05-06 11:11 | 47.05871 | -65.19892 | 33876 ft | 446 kts | 262° |
| 2026-05-06 11:12 | 47.05044 | -65.28877 | 33870 ft | 444 kts | 262° |
| 2026-05-06 11:12 | 47.04232 | -65.37613 | 33879 ft | 445 kts | 262° |
| 2026-05-06 11:13 | 47.03398 | -65.46512 | 33871 ft | 444 kts | 262° |
| 2026-05-06 11:13 | 47.02571 | -65.55267 | 33873 ft | 442 kts | 262° |
| 2026-05-06 11:14 | 47.01732 | -65.64070 | 33875 ft | 443 kts | 262° |
| 2026-05-06 11:14 | 47.00893 | -65.72796 | 33879 ft | 442 kts | 262° |
| 2026-05-06 11:15 | 47.00039 | -65.81608 | 33875 ft | 440 kts | 261° |
| 2026-05-06 11:15 | 46.99188 | -65.90324 | 33868 ft | 439 kts | 261° |
| 2026-05-06 11:16 | 46.98323 | -65.99113 | 33859 ft | 436 kts | 261° |
| 2026-05-06 11:16 | 46.97464 | -66.07761 | 33868 ft | 437 kts | 261° |
| 2026-05-06 11:17 | 46.96588 | -66.16520 | 33875 ft | 436 kts | 261° |
| 2026-05-06 11:17 | 46.95724 | -66.25080 | 33869 ft | 434 kts | 262° |
| 2026-05-06 11:18 | 46.94845 | -66.33733 | 33866 ft | 436 kts | 261° |
| 2026-05-06 11:18 | 46.93961 | -66.42365 | 33854 ft | 435 kts | 261° |
| 2026-05-06 11:19 | 46.93063 | -66.51063 | 33863 ft | 435 kts | 261° |
| 2026-05-06 11:19 | 46.92175 | -66.59611 | 33851 ft | 434 kts | 261° |
| 2026-05-06 11:20 | 46.91274 | -66.68207 | 33863 ft | 434 kts | 261° |
| 2026-05-06 11:20 | 46.90411 | -66.76386 | 33851 ft | 433 kts | 260° |
| 2026-05-06 11:21 | 46.89479 | -66.85149 | 33845 ft | 432 kts | 261° |
| 2026-05-06 11:21 | 46.88551 | -66.93814 | 33837 ft | 433 kts | 260° |
| 2026-05-06 11:22 | 46.87611 | -67.02512 | 33836 ft | 432 kts | 260° |
| 2026-05-06 11:22 | 46.86622 | -67.11105 | 33840 ft | 431 kts | 259° |
| 2026-05-06 11:23 | 46.85616 | -67.19716 | 33831 ft | 432 kts | 259° |
| 2026-05-06 11:23 | 46.84597 | -67.28368 | 33848 ft | 431 kts | 260° |
| 2026-05-06 11:24 | 46.83583 | -67.36910 | 33854 ft | 431 kts | 259° |
| 2026-05-06 11:24 | 46.82568 | -67.45401 | 33860 ft | 431 kts | 259° |
| 2026-05-06 11:25 | 46.81547 | -67.53882 | 33857 ft | 430 kts | 259° |
| 2026-05-06 11:25 | 46.80538 | -67.62206 | 33859 ft | 431 kts | 260° |
| 2026-05-06 11:26 | 46.79498 | -67.70734 | 33879 ft | 430 kts | 259° |
| 2026-05-06 11:26 | 46.78443 | -67.79325 | 33873 ft | 430 kts | 259° |
| 2026-05-06 11:27 | 46.77382 | -67.87916 | 33877 ft | 428 kts | 259° |
| 2026-05-06 11:27 | 46.76318 | -67.96475 | 33878 ft | 429 kts | 258° |
| 2026-05-06 11:28 | 46.75249 | -68.05014 | 33872 ft | 427 kts | 258° |
| 2026-05-06 11:28 | 46.74182 | -68.13480 | 33876 ft | 428 kts | 258° |
| 2026-05-06 11:29 | 46.73099 | -68.22031 | 33873 ft | 428 kts | 259° |
| 2026-05-06 11:29 | 46.72012 | -68.30552 | 33865 ft | 427 kts | 258° |
| 2026-05-06 11:30 | 46.70925 | -68.39026 | 33865 ft | 428 kts | 258° |
| 2026-05-06 11:30 | 46.69836 | -68.47456 | 33855 ft | 426 kts | 259° |
| 2026-05-06 11:31 | 46.68732 | -68.55960 | 33854 ft | 426 kts | 259° |
| 2026-05-06 11:31 | 46.67631 | -68.64383 | 33856 ft | 425 kts | 258° |
| 2026-05-06 11:32 | 46.66520 | -68.72834 | 33865 ft | 425 kts | 258° |
| 2026-05-06 11:32 | 46.65408 | -68.81243 | 33861 ft | 424 kts | 258° |
| 2026-05-06 11:33 | 46.64293 | -68.89625 | 33855 ft | 422 kts | 258° |
| 2026-05-06 11:33 | 46.63171 | -68.98008 | 33852 ft | 423 kts | 258° |
| 2026-05-06 11:34 | 46.62047 | -69.06356 | 33842 ft | 421 kts | 258° |
| 2026-05-06 11:34 | 46.60920 | -69.14682 | 33849 ft | 421 kts | 258° |
| 2026-05-06 11:35 | 46.59786 | -69.23004 | 33853 ft | 421 kts | 258° |
| 2026-05-06 11:35 | 46.58645 | -69.31340 | 33849 ft | 421 kts | 258° |
| 2026-05-06 11:36 | 46.57493 | -69.39700 | 33850 ft | 422 kts | 257° |
| 2026-05-06 11:36 | 46.56338 | -69.48038 | 33845 ft | 421 kts | 258° |
| 2026-05-06 11:37 | 46.55181 | -69.56345 | 33854 ft | 422 kts | 257° |
| 2026-05-06 11:37 | 46.54015 | -69.64659 | 33845 ft | 419 kts | 258° |
| 2026-05-06 11:38 | 46.52850 | -69.72929 | 33860 ft | 420 kts | 257° |
| 2026-05-06 11:38 | 46.51669 | -69.81269 | 33859 ft | 420 kts | 257° |
| 2026-05-06 11:39 | 46.50490 | -69.89547 | 33857 ft | 421 kts | 257° |
| 2026-05-06 11:39 | 46.49303 | -69.97831 | 33857 ft | 421 kts | 257° |
| 2026-05-06 11:40 | 46.48103 | -70.06162 | 33851 ft | 421 kts | 257° |
| 2026-05-06 11:40 | 46.46905 | -70.14439 | 33848 ft | 419 kts | 257° |
| 2026-05-06 11:41 | 46.45697 | -70.22733 | 33845 ft | 419 kts | 257° |
| 2026-05-06 11:41 | 46.44487 | -70.30997 | 33843 ft | 419 kts | 257° |
| 2026-05-06 11:42 | 46.43274 | -70.39242 | 33850 ft | 419 kts | 257° |
| 2026-05-06 11:42 | 46.42061 | -70.47440 | 33843 ft | 420 kts | 256° |